createdAt,value
2019-03-03T00:01:56.905Z,3.80
2019-03-03T00:04:25.952Z,3.70
2019-03-03T00:06:55.327Z,3.60
2019-03-03T00:09:24.511Z,3.50
2019-03-03T00:11:53.646Z,3.40
2019-03-03T00:14:22.827Z,3.40
2019-03-03T00:16:53.474Z,3.40
2019-03-03T00:19:23.409Z,3.50
2019-03-03T00:21:53.923Z,3.60
2019-03-03T00:24:23.133Z,3.60
2019-03-03T00:26:54.203Z,3.60
2019-03-03T00:29:24.722Z,3.70
2019-03-03T00:31:56.863Z,3.70
2019-03-03T00:34:28.043Z,3.70
2019-03-03T00:37:01.604Z,3.70
2019-03-03T00:39:48.386Z,3.80
2019-03-03T00:42:22.383Z,3.70
2019-03-03T00:44:53.044Z,3.70
2019-03-03T00:47:26.603Z,3.70
2019-03-03T00:49:57.483Z,3.70
2019-03-03T00:52:31.589Z,3.70
2019-03-03T00:55:02.279Z,3.70
2019-03-03T00:57:53.643Z,3.70
2019-03-03T01:00:44.187Z,3.60
2019-03-03T01:03:28.674Z,3.50
2019-03-03T01:09:33.543Z,3.60
2019-03-03T01:12:12.604Z,3.60
2019-03-03T01:15:09.564Z,3.60
2019-03-03T01:18:16.323Z,3.70
2019-03-03T01:20:50.284Z,3.70
2019-03-03T01:23:31.953Z,3.70
2019-03-03T01:26:04.602Z,3.70
2019-03-03T01:28:34.003Z,3.70
2019-03-03T01:31:03.123Z,3.70
2019-03-03T01:33:33.823Z,3.70
2019-03-03T01:36:02.945Z,3.70
2019-03-03T01:38:32.287Z,3.60
2019-03-03T01:41:01.789Z,3.50
2019-03-03T01:43:31.284Z,3.50
2019-03-03T01:46:02.084Z,3.50
2019-03-03T01:48:34.465Z,3.50
2019-03-03T01:51:06.004Z,3.50
2019-03-03T01:53:35.203Z,3.50
2019-03-03T01:56:04.983Z,3.50
2019-03-03T01:58:34.322Z,3.50
2019-03-03T02:01:03.765Z,3.50
2019-03-03T02:03:33.253Z,3.40
2019-03-03T02:06:05.525Z,3.50
2019-03-03T02:08:34.705Z,3.50
2019-03-03T02:11:03.924Z,3.50
2019-03-03T02:13:33.284Z,3.40
2019-03-03T02:16:03.564Z,3.40
2019-03-03T02:18:38.025Z,3.40
2019-03-03T02:21:07.529Z,3.30
2019-03-03T02:23:36.664Z,3.30
2019-03-03T02:26:05.831Z,3.30
2019-03-03T02:28:34.944Z,3.30
2019-03-03T02:31:10.364Z,3.20
2019-03-03T02:33:41.214Z,3.20
2019-03-03T02:36:10.604Z,3.20
2019-03-03T02:38:39.766Z,3.20
2019-03-03T02:41:09.714Z,3.20
2019-03-03T02:43:40.867Z,3.10
2019-03-03T02:46:10.085Z,3.10
2019-03-03T02:48:39.003Z,3.10
2019-03-03T02:51:08.466Z,3.10
2019-03-03T02:53:39.744Z,3.10
2019-03-03T02:56:08.945Z,3.20
2019-03-03T02:58:38.564Z,3.20
2019-03-03T03:01:18.185Z,3.20
2019-03-03T03:03:47.265Z,3.20
2019-03-03T03:06:18.225Z,3.20
2019-03-03T03:08:49.084Z,3.10
2019-03-03T03:11:35.444Z,3.10
2019-03-03T03:16:53.870Z,3.20
2019-03-03T03:19:24.605Z,3.20
2019-03-03T03:22:13.842Z,3.30
2019-03-03T03:25:03.163Z,3.30
2019-03-03T03:27:34.044Z,3.30
2019-03-03T03:30:10.664Z,3.20
2019-03-03T03:32:41.497Z,3.20
2019-03-03T03:35:30.484Z,3.20
2019-03-03T03:38:10.283Z,3.20
2019-03-03T03:40:53.209Z,3.10
2019-03-03T03:43:38.981Z,2.90
2019-03-03T03:46:09.926Z,2.80
2019-03-03T03:48:40.664Z,2.80
2019-03-03T03:51:27.710Z,2.70
2019-03-03T03:53:58.463Z,2.70
2019-03-03T03:56:45.844Z,2.70
2019-03-03T03:59:22.906Z,2.70
2019-03-03T04:02:09.532Z,2.60
2019-03-03T04:04:42.953Z,2.60
2019-03-03T04:07:29.133Z,2.60
2019-03-03T04:09:59.833Z,2.60
2019-03-03T04:12:36.373Z,2.50
2019-03-03T04:15:25.373Z,2.50
2019-03-03T04:17:55.992Z,2.50
2019-03-03T04:20:46.130Z,2.50
2019-03-03T04:23:19.552Z,2.50
2019-03-03T04:26:09.053Z,2.50
2019-03-03T04:28:48.374Z,2.50
2019-03-03T04:31:31.292Z,2.50
2019-03-03T04:36:34.934Z,2.50
2019-03-03T04:39:11.024Z,2.50
2019-03-03T04:41:55.924Z,2.50
2019-03-03T04:44:32.724Z,2.40
2019-03-03T04:47:09.904Z,2.40
2019-03-03T04:49:57.583Z,2.30
2019-03-03T04:52:28.245Z,2.30
2019-03-03T04:55:02.364Z,2.30
2019-03-03T04:57:37.323Z,2.30
2019-03-03T05:00:29.355Z,2.40
2019-03-03T05:03:04.412Z,2.40
2019-03-03T05:05:35.132Z,2.30
2019-03-03T05:08:09.054Z,2.30
2019-03-03T05:10:49.069Z,2.30
2019-03-03T05:13:25.444Z,2.20
2019-03-03T05:15:58.700Z,2.20
2019-03-03T05:18:32.023Z,2.20
2019-03-03T05:21:01.444Z,2.20
2019-03-03T05:23:31.004Z,2.10
2019-03-03T05:26:05.003Z,2.10
2019-03-03T05:28:34.104Z,2.10
2019-03-03T05:31:04.644Z,2.10
2019-03-03T05:33:36.923Z,2.10
2019-03-03T05:36:08.564Z,2.10
2019-03-03T05:38:48.745Z,2.20
2019-03-03T05:41:23.824Z,2.20
2019-03-03T05:43:52.302Z,2.30
2019-03-03T05:46:21.563Z,2.30
2019-03-03T05:48:50.643Z,2.20
2019-03-03T05:51:19.983Z,2.10
2019-03-03T05:53:49.203Z,2.10
2019-03-03T05:56:18.994Z,2.10
2019-03-03T05:58:48.404Z,2.10
2019-03-03T06:01:17.426Z,2.20
2019-03-03T06:03:46.465Z,2.20
2019-03-03T06:06:15.645Z,2.20
2019-03-03T06:08:45.605Z,2.30
2019-03-03T06:11:14.585Z,2.30
2019-03-03T06:13:45.365Z,2.30
2019-03-03T06:16:17.743Z,2.30
2019-03-03T06:18:46.863Z,2.30
2019-03-03T06:21:16.143Z,2.30
2019-03-03T06:23:45.367Z,2.30
2019-03-03T06:26:14.743Z,2.30
2019-03-03T06:28:44.503Z,2.40
2019-03-03T06:31:13.944Z,2.50
2019-03-03T06:33:44.939Z,2.50
2019-03-03T06:36:14.383Z,2.60
2019-03-03T06:38:43.704Z,2.80
2019-03-03T06:41:13.363Z,3.10
2019-03-03T06:43:42.403Z,3.90
2019-03-03T06:46:12.508Z,4.00
2019-03-03T06:48:41.910Z,4.00
2019-03-03T06:51:11.204Z,3.80
2019-03-03T06:53:40.243Z,4.00
2019-03-03T06:56:09.403Z,4.00
2019-03-03T06:58:38.746Z,5.70
2019-03-03T07:01:07.933Z,9.20
2019-03-03T07:03:37.150Z,11.40
2019-03-03T07:06:06.291Z,14.30
2019-03-03T07:08:35.371Z,15.30
2019-03-03T07:11:07.730Z,16.60
2019-03-03T07:13:36.955Z,17.60
2019-03-03T07:16:06.131Z,18.60
2019-03-03T07:18:35.151Z,19.40
2019-03-03T07:21:04.458Z,19.70
2019-03-03T07:23:34.112Z,20.30
2019-03-03T07:26:03.791Z,20.60
2019-03-03T07:28:32.904Z,20.80
2019-03-03T07:31:06.743Z,20.90
2019-03-03T07:33:35.642Z,21.00
2019-03-03T07:36:04.744Z,21.20
2019-03-03T07:38:33.587Z,20.90
2019-03-03T07:41:02.508Z,21.60
2019-03-03T07:43:37.666Z,22.30
2019-03-03T07:46:06.772Z,22.90
2019-03-03T07:48:38.669Z,23.20
2019-03-03T07:51:07.723Z,23.00
2019-03-03T07:53:36.730Z,23.10
2019-03-03T07:56:05.994Z,22.90
2019-03-03T07:58:42.344Z,20.00
2019-03-03T08:01:11.366Z,17.10
2019-03-03T08:03:40.266Z,14.60
2019-03-03T08:06:09.244Z,13.10
2019-03-03T08:08:38.224Z,12.20
2019-03-03T08:11:11.363Z,11.60
2019-03-03T08:13:41.822Z,11.00
2019-03-03T08:16:12.563Z,10.50
2019-03-03T08:18:41.485Z,10.10
2019-03-03T08:21:12.404Z,9.80
2019-03-03T08:23:44.343Z,9.80
2019-03-03T08:26:16.303Z,9.80
2019-03-03T08:28:45.296Z,9.90
2019-03-03T08:31:14.240Z,10.00
2019-03-03T08:34:14.458Z,10.10
2019-03-03T08:36:27.844Z,10.20
2019-03-03T08:38:59.824Z,10.20
2019-03-03T08:41:28.907Z,10.10
2019-03-03T08:46:48.730Z,10.20
2019-03-03T08:49:29.732Z,10.30
2019-03-03T08:52:02.788Z,10.30
2019-03-03T08:54:53.746Z,10.20
2019-03-03T08:57:27.170Z,10.10
2019-03-03T09:00:05.243Z,10.20
2019-03-03T09:02:52.116Z,10.30
2019-03-03T09:05:31.931Z,10.30
2019-03-03T09:08:20.367Z,10.50
2019-03-03T09:10:57.286Z,10.70
2019-03-03T09:13:30.843Z,11.00
2019-03-03T09:16:09.303Z,11.10
2019-03-03T09:18:50.403Z,11.20
2019-03-03T09:21:21.343Z,11.20
2019-03-03T09:24:11.383Z,11.40
2019-03-03T09:26:54.162Z,11.40
2019-03-03T09:29:33.843Z,11.10
2019-03-03T09:32:20.544Z,11.00
2019-03-03T09:34:53.608Z,11.00
2019-03-03T09:37:26.727Z,11.30
2019-03-03T09:40:16.703Z,11.50
2019-03-03T09:43:08.864Z,11.70
2019-03-03T09:45:42.464Z,11.70
2019-03-03T09:48:13.203Z,11.90
2019-03-03T09:51:02.204Z,11.90
2019-03-03T09:53:35.683Z,11.90
2019-03-03T09:56:15.783Z,11.90
2019-03-03T09:59:04.063Z,11.90
2019-03-03T10:01:54.023Z,11.90
2019-03-03T10:04:24.570Z,12.00
2019-03-03T10:07:10.483Z,12.00
2019-03-03T10:09:50.466Z,12.00
2019-03-03T10:12:39.444Z,12.10
2019-03-03T10:15:27.285Z,12.20
2019-03-03T10:18:15.286Z,12.40
2019-03-03T10:20:50.562Z,12.60
2019-03-03T10:23:37.582Z,12.60
2019-03-03T10:26:14.165Z,12.60
2019-03-03T10:28:44.923Z,12.60
2019-03-03T10:31:15.763Z,12.70
2019-03-03T10:34:03.845Z,12.70
2019-03-03T10:36:37.723Z,12.80
2019-03-03T10:39:28.323Z,12.90
2019-03-03T10:41:59.082Z,12.90
2019-03-03T10:44:29.842Z,13.10
2019-03-03T10:47:25.203Z,13.20
2019-03-03T10:50:01.928Z,13.10
2019-03-03T10:52:35.503Z,13.20
2019-03-03T10:55:07.604Z,13.30
2019-03-03T10:57:50.867Z,13.40
2019-03-03T11:00:23.697Z,13.30
2019-03-03T11:03:10.449Z,13.40
2019-03-03T11:05:50.309Z,13.30
2019-03-03T11:08:20.889Z,13.30
2019-03-03T11:10:57.961Z,13.20
2019-03-03T11:13:40.989Z,13.10
2019-03-03T11:16:29.224Z,13.00
2019-03-03T11:19:02.867Z,13.20
2019-03-03T11:21:49.485Z,13.30
2019-03-03T11:24:27.126Z,13.60
2019-03-03T11:26:57.963Z,13.70
2019-03-03T11:29:37.605Z,13.80
2019-03-03T11:32:20.303Z,13.90
2019-03-03T11:34:50.883Z,14.10
2019-03-03T11:37:33.829Z,14.30
2019-03-03T11:40:07.764Z,14.40
2019-03-03T11:42:38.464Z,14.40
2019-03-03T11:45:22.183Z,14.50
2019-03-03T11:48:04.099Z,14.50
2019-03-03T11:50:49.684Z,14.50
2019-03-03T11:53:37.045Z,14.40
2019-03-03T11:56:07.904Z,14.50
2019-03-03T11:58:41.588Z,14.60
2019-03-03T12:01:24.264Z,14.60
2019-03-03T12:03:55.020Z,14.70
2019-03-03T12:06:31.737Z,14.70
2019-03-03T12:09:18.669Z,14.80
2019-03-03T12:14:43.433Z,14.70
2019-03-03T12:17:23.270Z,14.60
2019-03-03T12:19:53.898Z,14.50
2019-03-03T12:22:36.455Z,14.60
2019-03-03T12:25:10.007Z,14.70
2019-03-03T12:27:46.907Z,14.70
2019-03-03T12:30:30.112Z,14.80
2019-03-03T12:33:00.787Z,14.90
2019-03-03T12:35:31.824Z,14.90
2019-03-03T12:38:11.665Z,15.10
2019-03-03T12:40:42.544Z,15.10
2019-03-03T12:43:16.243Z,15.00
2019-03-03T12:45:55.664Z,15.10
2019-03-03T12:48:35.323Z,15.20
2019-03-03T12:51:22.089Z,15.30
2019-03-03T12:53:55.963Z,15.30
2019-03-03T12:56:31.341Z,15.20
2019-03-03T12:59:20.363Z,15.20
2019-03-03T13:02:09.263Z,15.20
2019-03-03T13:04:42.504Z,15.30
2019-03-03T13:07:16.024Z,15.30
2019-03-03T13:09:53.791Z,15.30
2019-03-03T13:12:42.552Z,15.40
2019-03-03T13:15:32.356Z,15.20
2019-03-03T13:18:14.924Z,15.20
2019-03-03T13:21:02.026Z,15.40
2019-03-03T13:23:41.754Z,15.50
2019-03-03T13:26:12.265Z,15.60
2019-03-03T13:28:46.048Z,15.50
2019-03-03T13:31:23.037Z,15.50
2019-03-03T13:33:56.347Z,15.40
2019-03-03T13:36:47.003Z,15.50
2019-03-03T13:39:29.507Z,15.60
2019-03-03T13:42:02.865Z,15.60
2019-03-03T13:44:31.747Z,15.60
2019-03-03T13:47:00.673Z,15.60
2019-03-03T13:49:29.675Z,15.60
2019-03-03T13:52:03.722Z,15.70
2019-03-03T13:54:32.652Z,15.70
2019-03-03T13:57:01.811Z,15.70
2019-03-03T13:59:42.777Z,15.70
2019-03-03T14:02:14.986Z,15.50
2019-03-03T14:04:43.930Z,15.40
2019-03-03T14:07:20.127Z,15.50
2019-03-03T14:09:49.036Z,15.50
2019-03-03T14:12:17.967Z,15.60
2019-03-03T14:14:47.148Z,15.70
2019-03-03T14:17:16.126Z,15.70
2019-03-03T14:19:45.208Z,15.70
2019-03-03T14:22:23.828Z,15.80
2019-03-03T14:24:52.746Z,15.80
2019-03-03T14:27:21.732Z,15.80
2019-03-03T14:29:50.708Z,15.80
2019-03-03T14:32:22.588Z,15.80
2019-03-03T14:34:51.537Z,15.90
2019-03-03T14:37:20.769Z,15.90
2019-03-03T14:39:49.808Z,16.00
2019-03-03T14:42:18.709Z,16.00
2019-03-03T14:44:47.670Z,16.10
2019-03-03T14:47:17.232Z,16.10
2019-03-03T14:49:46.210Z,16.10
2019-03-03T14:52:15.211Z,16.00
2019-03-03T14:54:45.169Z,16.00
2019-03-03T14:57:14.133Z,16.00
2019-03-03T14:59:47.600Z,16.00
2019-03-03T15:02:16.833Z,15.90
2019-03-03T15:04:45.711Z,15.70
2019-03-03T15:07:14.674Z,15.60
2019-03-03T15:09:44.911Z,15.50
2019-03-03T15:12:14.310Z,15.40
2019-03-03T15:14:43.248Z,15.40
2019-03-03T15:17:13.235Z,15.40
2019-03-03T15:19:42.160Z,15.40
2019-03-03T15:22:11.167Z,15.40
2019-03-03T15:24:40.081Z,15.40
2019-03-03T15:27:09.096Z,15.40
2019-03-03T15:29:38.014Z,15.40
2019-03-03T15:32:08.413Z,15.30
2019-03-03T15:34:37.328Z,15.30
2019-03-03T15:37:07.842Z,15.20
2019-03-03T15:39:37.013Z,15.20
2019-03-03T15:42:09.134Z,15.10
2019-03-03T15:44:38.114Z,14.90
2019-03-03T15:47:07.087Z,14.80
2019-03-03T15:49:39.068Z,14.70
2019-03-03T15:52:08.115Z,14.60
2019-03-03T15:54:37.167Z,14.50
2019-03-03T15:57:06.027Z,14.50
2019-03-03T15:59:35.127Z,14.50
2019-03-03T16:02:05.503Z,14.40
2019-03-03T16:04:34.432Z,14.40
2019-03-03T16:07:04.478Z,14.30
2019-03-03T16:09:33.391Z,14.30
2019-03-03T16:12:02.291Z,14.20
2019-03-03T16:14:31.231Z,14.30
2019-03-03T16:17:00.110Z,14.10
2019-03-03T16:19:32.091Z,14.10
2019-03-03T16:22:04.171Z,14.00
2019-03-03T16:24:33.042Z,14.00
2019-03-03T16:27:02.227Z,14.00
2019-03-03T16:29:31.312Z,13.90
2019-03-03T16:32:00.268Z,13.80
2019-03-03T16:34:30.679Z,13.80
2019-03-03T16:36:59.669Z,13.70
2019-03-03T16:39:28.745Z,13.70
2019-03-03T16:41:57.674Z,13.60
2019-03-03T16:44:26.642Z,13.50
2019-03-03T16:46:57.461Z,13.50
2019-03-03T16:49:26.368Z,13.40
2019-03-03T16:51:57.549Z,13.30
2019-03-03T16:54:26.508Z,13.20
2019-03-03T16:56:55.485Z,13.10
2019-03-03T16:59:24.385Z,13.10
2019-03-03T17:01:53.298Z,13.00
2019-03-03T17:04:22.174Z,12.80
2019-03-03T17:06:51.351Z,12.80
2019-03-03T17:09:32.793Z,12.60
2019-03-03T17:12:02.525Z,12.60
2019-03-03T17:14:31.551Z,12.50
2019-03-03T17:17:00.752Z,12.40
2019-03-03T17:19:30.379Z,12.30
2019-03-03T17:21:59.691Z,12.30
2019-03-03T17:24:28.591Z,12.30
2019-03-03T17:26:57.701Z,12.20
2019-03-03T17:29:26.710Z,12.10
2019-03-03T17:31:55.772Z,12.10
2019-03-03T17:34:24.975Z,12.00
2019-03-03T17:36:53.885Z,12.00
2019-03-03T17:39:34.524Z,11.90
2019-03-03T17:42:03.443Z,11.90
2019-03-03T17:44:32.328Z,11.90
2019-03-03T17:47:01.310Z,11.90
2019-03-03T17:49:34.101Z,11.80
2019-03-03T17:52:07.737Z,11.80
2019-03-03T17:54:37.549Z,11.70
2019-03-03T17:57:08.184Z,11.70
2019-03-03T17:59:37.147Z,11.70
2019-03-03T18:02:06.134Z,11.70
2019-03-03T18:04:38.784Z,11.70
2019-03-03T18:07:07.735Z,11.70
2019-03-03T18:09:36.663Z,11.60
2019-03-03T18:12:05.665Z,11.60
2019-03-03T18:14:34.629Z,11.70
2019-03-03T18:17:03.673Z,11.70
2019-03-03T18:19:32.536Z,11.80
2019-03-03T18:22:03.086Z,11.70
2019-03-03T18:24:32.010Z,11.60
2019-03-03T18:27:01.001Z,11.50
2019-03-03T18:29:29.998Z,11.50
2019-03-03T18:31:58.957Z,11.40
2019-03-03T18:34:27.871Z,11.40
2019-03-03T18:36:56.995Z,11.40
2019-03-03T18:39:25.891Z,11.30
2019-03-03T18:41:54.774Z,11.30
2019-03-03T18:44:23.733Z,11.30
2019-03-03T18:46:54.132Z,11.20
2019-03-03T18:49:23.031Z,11.10
2019-03-03T18:51:51.972Z,11.10
2019-03-03T18:54:21.056Z,11.00
2019-03-03T18:56:49.975Z,10.90
2019-03-03T18:59:18.997Z,10.90
2019-03-03T19:01:48.189Z,10.90
2019-03-03T19:04:17.078Z,10.90
2019-03-03T19:06:46.288Z,10.90
2019-03-03T19:09:17.391Z,10.90
2019-03-03T19:11:47.309Z,10.90
2019-03-03T19:14:16.636Z,10.90
2019-03-03T19:16:45.838Z,10.90
2019-03-03T19:19:15.372Z,10.90
2019-03-03T19:21:44.810Z,10.90
2019-03-03T19:24:14.731Z,10.90
2019-03-03T19:26:46.445Z,10.90
2019-03-03T19:29:15.945Z,10.90
2019-03-03T19:31:45.166Z,10.80
2019-03-03T19:34:14.477Z,10.80
2019-03-03T19:36:45.780Z,10.70
2019-03-03T19:39:15.006Z,10.70
2019-03-03T19:41:44.407Z,10.60
2019-03-03T19:44:13.889Z,10.60
2019-03-03T19:46:42.921Z,10.60
2019-03-03T19:49:12.113Z,10.50
2019-03-03T19:51:41.543Z,10.50
2019-03-03T19:54:12.006Z,10.50
2019-03-03T19:56:41.123Z,10.50
2019-03-03T19:59:10.423Z,10.50
2019-03-03T20:01:39.915Z,10.40
2019-03-03T20:04:11.296Z,10.40
2019-03-03T20:06:40.505Z,10.40
2019-03-03T20:09:09.525Z,10.40
2019-03-03T20:11:38.804Z,10.40
2019-03-03T20:14:07.984Z,10.40
2019-03-03T20:16:36.926Z,10.40
2019-03-03T20:19:06.708Z,10.30
2019-03-03T20:21:36.147Z,10.30
2019-03-03T20:24:05.848Z,10.30
2019-03-03T20:26:35.627Z,10.20
2019-03-03T20:29:08.188Z,10.20
2019-03-03T20:31:37.369Z,10.20
2019-03-03T20:34:06.807Z,10.20
2019-03-03T20:36:36.467Z,10.10
2019-03-03T20:39:07.107Z,10.00
2019-03-03T20:41:36.488Z,9.90
2019-03-03T20:44:05.946Z,9.80
2019-03-03T20:46:42.629Z,9.80
2019-03-03T20:49:12.447Z,9.70
2019-03-03T20:51:41.867Z,9.70
2019-03-03T20:54:11.366Z,9.60
2019-03-03T20:56:40.583Z,9.60
2019-03-03T20:59:09.864Z,9.50
2019-03-03T21:01:39.050Z,9.50
2019-03-03T21:04:08.149Z,9.50
2019-03-03T21:06:37.550Z,9.40
2019-03-03T21:09:07.489Z,9.40
2019-03-03T21:11:36.630Z,9.40
2019-03-03T21:14:05.710Z,9.30
2019-03-03T21:16:34.988Z,9.30
2019-03-03T21:19:07.408Z,9.30
2019-03-03T21:21:36.983Z,9.30
2019-03-03T21:24:06.166Z,9.30
2019-03-03T21:26:35.604Z,9.40
2019-03-03T21:29:05.283Z,9.40
2019-03-03T21:31:34.468Z,9.40
2019-03-03T21:36:35.850Z,9.40
2019-03-03T21:39:12.389Z,9.40
2019-03-03T21:41:45.752Z,9.40
2019-03-03T21:44:16.570Z,9.40
2019-03-03T21:46:45.839Z,9.40
2019-03-03T21:49:15.109Z,9.40
2019-03-03T21:51:44.405Z,9.40
2019-03-03T21:54:15.384Z,9.40
2019-03-03T21:56:44.404Z,9.40
2019-03-03T21:59:13.604Z,9.40
2019-03-03T22:01:42.812Z,9.50
2019-03-03T22:04:14.234Z,9.50
2019-03-03T22:06:43.613Z,9.40
2019-03-03T22:09:13.344Z,9.10
2019-03-03T22:11:42.363Z,9.10
2019-03-03T22:14:13.464Z,9.10
2019-03-03T22:16:42.644Z,9.10
2019-03-03T22:19:11.685Z,9.10
2019-03-03T22:21:41.063Z,9.10
2019-03-03T22:24:16.673Z,9.10
2019-03-03T22:26:45.704Z,9.20
2019-03-03T22:29:14.967Z,9.20
2019-03-03T22:31:44.344Z,9.20
2019-03-03T22:34:14.584Z,9.30
2019-03-03T22:36:43.605Z,9.30
2019-03-03T22:39:12.924Z,9.30
2019-03-03T22:41:42.486Z,9.30
2019-03-03T22:44:12.165Z,9.40
2019-03-03T22:46:41.463Z,9.40
2019-03-03T22:49:11.064Z,9.40
2019-03-03T22:51:40.725Z,9.40
2019-03-03T22:54:13.527Z,9.30
2019-03-03T22:56:42.594Z,9.10
2019-03-03T22:59:12.106Z,8.90
2019-03-03T23:01:41.764Z,8.80
2019-03-03T23:04:33.163Z,8.70
2019-03-03T23:07:17.643Z,8.60
2019-03-03T23:10:18.884Z,8.50
2019-03-03T23:13:20.504Z,8.50
2019-03-03T23:16:08.324Z,8.40
2019-03-03T23:18:55.703Z,8.30
2019-03-03T23:21:39.964Z,8.30
2019-03-03T23:24:48.083Z,8.20
2019-03-03T23:27:17.484Z,8.20
2019-03-03T23:29:47.283Z,8.30
2019-03-03T23:32:16.944Z,8.20
2019-03-03T23:34:46.024Z,8.20
2019-03-03T23:37:15.271Z,8.20
2019-03-03T23:39:44.723Z,8.20
2019-03-03T23:42:14.103Z,8.20
2019-03-03T23:44:43.224Z,8.20
2019-03-03T23:47:12.403Z,8.20
2019-03-03T23:49:45.043Z,8.10
2019-03-03T23:52:14.564Z,8.10
2019-03-03T23:54:43.923Z,8.10
2019-03-03T23:57:16.124Z,8.10
2019-03-03T23:59:45.845Z,8.10
